メインページ
METAR-TAF:

METAR-TAF

空港 :

ポートモレスビー・ジャクソン国際空港

ポートモレスビー, パプアニューギニア

緯度: 09-26S, 経度: 147-13E, 海抜: 38m

現時点の気象観測

当レポートは50分前の01:00(UTC)に作成
の風 8kt
気温 32°C
湿度 63%
気圧 1010 hPa
視程10km以上
高度2000ftの雲はほとんどない
高度3000ftの雲は散在している
煙霧

METAR: AYPY 160100Z 19008KT 9999 HZ FEW020 SCT030 32/24 Q1010 RMK:BUILD UPS IN AREA

時間: 11:50 (01:50 UTC)

予報

予報は16日の 00時(UTC)から 16日の 24時(UTC)まで有効
変向風 3kt
視程10km以上
高度1800ftの雲は散在している
高度3500ftの雲は散在している
高度14000ftの千切れ雲あり
弱いにわか雨
16日の 0200時(UTC)から
の風 7kt
視程10km以上
高度1800ftの雲は散在している
高度3500ftの雲は散在している
高度14000ftの千切れ雲あり
弱いにわか雨

TAF: AYPY 1600/1624 VRB03KT 9999 -SHRA SCT018 SCT035 BKN140 FM160200 18007KT 9999 -SHRA SCT018 SCT035 BKN140

4,000以上の空港の気象観測と天気予報(METAR報とTAF報)

利用可能な観測所は地図上に黄色い丸と赤い丸で示す。

丸の上にカーソルを重ねると観測所名を参照できる。

次にクリックすると気象観測と天気予報を参照できる。

マップの切り替え:黒色「×」印の緑ボタンをクリックして拡大、「-」印の緑ボタンをクリックして縮小、緑色の三角印をクリックして隣りの地図に切り替え


METAR-TAF: